First Clarity — A8RM8 — position and weather

sailwx.info

Track history (hours):
 
Tides and Currents Weather Stations Pressure Air Temp Water Temp Dewpoint Dewpoint Depression Visibility Wind Speed Wind Dir Waves Ship Positions

First Clarity

Last reported at 2016-Feb-14 07:33 UTC. Time now 2016-Feb-14 19:03 UTC.
Position N 34°36' E 134°54'.

Length 104 m; draft 5.9 m.

Type: Cargo ship. MMSI: 636014129.

Date/timePositionNaut miles runAvg speedWind from/ knotsBaromVisibWave heightAir tempDewpointWater temp
2016-Feb-14 07:33N 34°36' E 134°54'6 6.5
2016-Feb-14 06:33N 34°37' E 135°02'7 7.2
2016-Feb-14 05:33N 34°30' E 135°04'1010.0
2016-Feb-14 04:33N 34°20' E 135°01'1010.0
2016-Feb-14 03:33N 34°10' E 134°59'240 6.3
2016-Feb-12 13:33N 35°07' E 139°43'9 9.0
2016-Feb-12 12:33N 35°16' E 139°46'10 9.9
2016-Feb-12 11:34N 35°24' E 139°40'1 1.2
2016-Feb-12 10:32N 35°24' E 139°38'0 0.0
2016-Feb-12 09:32N 35°24' E 139°38'0 0.0
2016-Feb-12 08:32N 35°24' E 139°38'0 0.0
2016-Feb-12 07:32N 35°24' E 139°38'0 0.0
2016-Feb-12 06:32N 35°24' E 139°38'0 0.0
2016-Feb-12 05:32N 35°24' E 139°38'0 0.0
2016-Feb-12 04:32N 35°24' E 139°38'0 0.0
2016-Feb-12 03:32N 35°24' E 139°38'0 0.0
2016-Feb-12 02:32N 35°24' E 139°38'0 0.0
2016-Feb-12 01:29N 35°24' E 139°38'0 0.0
2016-Feb-12 00:32N 35°24' E 139°38'0 0.0
2016-Feb-11 23:32N 35°24' E 139°38'0 0.3
2016-Feb-11 22:33N 35°25' E 139°39'2 1.5
2016-Feb-11 21:31N 35°23' E 139°40'0 0.0
2016-Feb-11 20:31N 35°23' E 139°40'0 0.0
2016-Feb-11 19:31N 35°23' E 139°40'0 0.0
2016-Feb-11 18:31N 35°23' E 139°40'0 0.1
2016-Feb-11 17:31N 35°23' E 139°40'0 0.0
2016-Feb-11 16:31N 35°23' E 139°40'0 0.0
2016-Feb-11 15:31N 35°23' E 139°40'0 0.0
2016-Feb-11 14:31N 35°23' E 139°40'0 0.0
2016-Feb-11 13:31N 35°23' E 139°40'0 0.0
2016-Feb-11 12:31N 35°23' E 139°40'0 0.0
2016-Feb-11 11:31N 35°23' E 139°40'0 0.1
2016-Feb-11 10:31N 35°23' E 139°40'0 0.0
2016-Feb-11 09:31N 35°23' E 139°40'0 0.0
2016-Feb-11 08:31N 35°23' E 139°40'0 0.0
2016-Feb-11 07:31N 35°23' E 139°40'0 0.0
2016-Feb-11 06:31N 35°23' E 139°40'0 0.0
2016-Feb-11 05:31N 35°23' E 139°40'0 0.0
2016-Feb-11 04:31N 35°23' E 139°40'0 0.0
2016-Feb-11 03:31N 35°23' E 139°40'3 2.8
2016-Feb-11 02:33N 35°21' E 139°42'9 9.2
2016-Feb-11 01:33N 35°13' E 139°47'9 8.9
2016-Feb-11 00:34N 35°05' E 139°43'  
Track history (hours):
 
Tides and Currents Weather Stations Pressure Air Temp Water Temp Dewpoint Dewpoint Depression Visibility Wind Speed Wind Dir Waves Ship Positions

First Clarity

Last reported at 2016-Feb-14 07:33 UTC. Time now 2016-Feb-14 19:03 UTC.
Position N 34°36' E 134°54'.

Length 104 m; draft 5.9 m.

Type: Cargo ship. MMSI: 636014129.

Date/timePositionNaut miles runAvg speedWind from/ knotsBaromVisibWave heightAir tempDewpointWater temp
2016-Feb-14 07:33N 34°36' E 134°54'6 6.5
2016-Feb-14 06:33N 34°37' E 135°02'7 7.2
2016-Feb-14 05:33N 34°30' E 135°04'1010.0
2016-Feb-14 04:33N 34°20' E 135°01'1010.0
2016-Feb-14 03:33N 34°10' E 134°59'240 6.3
2016-Feb-12 13:33N 35°07' E 139°43'9 9.0
2016-Feb-12 12:33N 35°16' E 139°46'10 9.9
2016-Feb-12 11:34N 35°24' E 139°40'1 1.2
2016-Feb-12 10:32N 35°24' E 139°38'0 0.0
2016-Feb-12 09:32N 35°24' E 139°38'0 0.0
2016-Feb-12 08:32N 35°24' E 139°38'0 0.0
2016-Feb-12 07:32N 35°24' E 139°38'0 0.0
2016-Feb-12 06:32N 35°24' E 139°38'0 0.0
2016-Feb-12 05:32N 35°24' E 139°38'0 0.0
2016-Feb-12 04:32N 35°24' E 139°38'0 0.0
2016-Feb-12 03:32N 35°24' E 139°38'0 0.0
2016-Feb-12 02:32N 35°24' E 139°38'0 0.0
2016-Feb-12 01:29N 35°24' E 139°38'0 0.0
2016-Feb-12 00:32N 35°24' E 139°38'0 0.0
2016-Feb-11 23:32N 35°24' E 139°38'0 0.3
2016-Feb-11 22:33N 35°25' E 139°39'2 1.5
2016-Feb-11 21:31N 35°23' E 139°40'0 0.0
2016-Feb-11 20:31N 35°23' E 139°40'0 0.0
2016-Feb-11 19:31N 35°23' E 139°40'0 0.0
2016-Feb-11 18:31N 35°23' E 139°40'0 0.1
2016-Feb-11 17:31N 35°23' E 139°40'0 0.0
2016-Feb-11 16:31N 35°23' E 139°40'0 0.0
2016-Feb-11 15:31N 35°23' E 139°40'0 0.0
2016-Feb-11 14:31N 35°23' E 139°40'0 0.0
2016-Feb-11 13:31N 35°23' E 139°40'0 0.0
2016-Feb-11 12:31N 35°23' E 139°40'0 0.0
2016-Feb-11 11:31N 35°23' E 139°40'0 0.1
2016-Feb-11 10:31N 35°23' E 139°40'0 0.0
2016-Feb-11 09:31N 35°23' E 139°40'0 0.0
2016-Feb-11 08:31N 35°23' E 139°40'0 0.0
2016-Feb-11 07:31N 35°23' E 139°40'0 0.0
2016-Feb-11 06:31N 35°23' E 139°40'0 0.0
2016-Feb-11 05:31N 35°23' E 139°40'0 0.0
2016-Feb-11 04:31N 35°23' E 139°40'0 0.0
2016-Feb-11 03:31N 35°23' E 139°40'3 2.8
2016-Feb-11 02:33N 35°21' E 139°42'9 9.2
2016-Feb-11 01:33N 35°13' E 139°47'9 8.9
2016-Feb-11 00:34N 35°05' E 139°43'  

Dump ship's entire track history